Time;durP1;ratioP1;P1;durP2;ratioP2;P2;SDS_P1;SDS_P2;PMS_P1;PMS_P2;Temp;Humidity;BMP_temperature;BMP_pressure;BME280_temperature;BME280_humidity;BME280_pressure;Samples;Min_cycle;Max_cycle;Signal;HPM_P1;HPM_P2
2021/10/03 00:00:14;;;;;;;3.37;3.10;;;;;;;8.05;100.00;97273.44;5052330;28;20616;-76
2021/10/03 00:02:44;;;;;;;4.73;2.87;;;;;;;8.03;100.00;97262.25;5052716;28;20281;-76
2021/10/03 00:05:13;;;;;;;4.10;3.60;;;;;;;8.12;100.00;97260.72;5052774;28;20186;-77
2021/10/03 00:07:43;;;;;;;4.47;3.53;;;;;;;8.24;100.00;97256.31;5052049;28;20202;-76
2021/10/03 00:10:11;;;;;;;4.43;3.37;;;;;;;8.21;100.00;97260.00;5052323;28;20194;-76
2021/10/03 00:12:39;;;;;;;6.17;2.90;;;;;;;8.14;100.00;97257.97;5052168;28;20707;-77
2021/10/03 00:15:08;;;;;;;4.03;3.30;;;;;;;8.02;100.00;97257.16;5051460;28;20324;-76
2021/10/03 00:17:36;;;;;;;6.80;3.57;;;;;;;7.89;100.00;97251.19;5051631;28;20693;-76
2021/10/03 00:20:07;;;;;;;4.33;3.77;;;;;;;7.82;100.00;97248.19;5051748;28;20194;-76
2021/10/03 00:22:34;;;;;;;3.37;3.07;;;;;;;7.81;100.00;97249.16;5052529;28;20590;-78
2021/10/03 00:25:01;;;;;;;3.37;3.07;;;;;;;7.59;100.00;97253.41;5051825;28;20200;-78
2021/10/03 00:27:29;;;;;;;4.23;3.77;;;;;;;7.68;100.00;97240.56;5052063;28;20281;-78
2021/10/03 00:29:56;;;;;;;3.70;3.37;;;;;;;7.88;100.00;97242.50;5051726;28;20281;-77
2021/10/03 00:32:23;;;;;;;5.30;3.40;;;;;;;8.01;100.00;97240.59;5052133;28;20603;-78
2021/10/03 00:34:50;;;;;;;3.73;3.43;;;;;;;8.17;100.00;97226.31;5051933;28;20206;-78
2021/10/03 00:37:19;;;;;;;4.13;3.50;;;;;;;8.25;100.00;97226.56;5051964;28;20276;-77
2021/10/03 00:39:46;;;;;;;7.43;4.00;;;;;;;8.38;100.00;97229.06;5051887;28;20567;-77
2021/10/03 00:42:14;;;;;;;4.03;3.73;;;;;;;8.38;100.00;97229.06;5051923;28;20197;-77
2021/10/03 00:44:41;;;;;;;4.30;3.47;;;;;;;8.37;100.00;97228.19;5051708;28;20201;-77
2021/10/03 00:47:09;;;;;;;4.47;3.40;;;;;;;8.41;100.00;97231.44;5051488;28;20200;-77
2021/10/03 00:49:36;;;;;;;5.53;3.77;;;;;;;8.46;100.00;97227.50;5051690;28;20284;-77
2021/10/03 00:52:05;;;;;;;9.87;3.47;;;;;;;8.45;100.00;97227.63;5051672;28;20200;-77
2021/10/03 00:54:34;;;;;;;5.47;3.57;;;;;;;8.41;100.00;97220.97;5051778;28;20588;-77
2021/10/03 00:57:02;;;;;;;3.80;3.50;;;;;;;8.44;100.00;97223.34;5051777;28;20208;-77
2021/10/03 00:59:30;;;;;;;3.63;3.30;;;;;;;8.41;100.00;97227.03;5051826;28;20231;-77
2021/10/03 01:01:57;;;;;;;4.60;3.97;;;;;;;8.40;100.00;97224.53;5051637;28;20281;-77
2021/10/03 01:04:25;;;;;;;3.50;3.30;;;;;;;8.40;100.00;97224.53;5051425;28;20193;-77
2021/10/03 01:06:52;;;;;;;4.53;4.00;;;;;;;8.40;100.00;97229.78;5051632;28;20194;-78
2021/10/03 01:09:20;;;;;;;3.67;3.10;;;;;;;8.48;100.00;97222.13;5051100;28;20574;-77
2021/10/03 01:11:49;;;;;;;3.90;3.50;;;;;;;8.49;100.00;97218.59;5051591;28;20304;-77
2021/10/03 01:14:18;;;;;;;4.53;3.37;;;;;;;8.49;100.00;97219.41;5051260;28;20256;-78
2021/10/03 01:16:46;;;;;;;7.73;3.27;;;;;;;8.49;100.00;97221.19;5051592;28;20208;-78
2021/10/03 01:19:13;;;;;;;4.43;3.37;;;;;;;8.51;100.00;97214.03;5051316;28;20204;-77
2021/10/03 01:21:44;;;;;;;3.57;2.90;;;;;;;8.52;100.00;97207.81;5051814;28;20194;-78
2021/10/03 01:24:12;;;;;;;5.00;3.43;;;;;;;8.55;100.00;97205.78;5051295;28;20190;-78
2021/10/03 01:26:39;;;;;;;4.77;3.60;;;;;;;8.52;100.00;97205.22;5051471;28;20200;-78
2021/10/03 01:29:07;;;;;;;5.07;3.43;;;;;;;8.48;100.00;97203.78;5055024;28;20666;-77
2021/10/03 01:31:35;;;;;;;4.23;3.83;;;;;;;8.66;100.00;97202.34;5055645;28;20186;-77
2021/10/03 01:34:02;;;;;;;3.57;3.27;;;;;;;8.56;100.00;97194.38;5054983;28;20602;-78
2021/10/03 01:36:29;;;;;;;5.13;3.57;;;;;;;8.51;100.00;97193.06;5055263;28;20200;-78
2021/10/03 01:38:58;;;;;;;7.13;4.07;;;;;;;8.44;100.00;97194.53;5054809;28;20202;-78
2021/10/03 01:41:26;;;;;;;4.27;3.77;;;;;;;8.43;100.00;97198.09;5055258;28;20198;-78
2021/10/03 01:43:53;;;;;;;4.30;3.80;;;;;;;8.32;100.00;97193.69;5055090;28;20194;-77
2021/10/03 01:46:20;;;;;;;6.93;3.57;;;;;;;8.36;100.00;97196.91;5055603;28;20587;-77
2021/10/03 01:48:47;;;;;;;3.97;3.67;;;;;;;8.39;100.00;97191.44;5054813;28;20205;-78
2021/10/03 01:51:16;;;;;;;4.00;3.63;;;;;;;8.38;100.00;97184.53;5055439;28;20204;-77
2021/10/03 01:53:47;;;;;;;3.47;3.17;;;;;;;8.37;100.00;97188.91;5054851;28;20232;-78
2021/10/03 01:56:17;;;;;;;3.53;3.23;;;;;;;8.40;100.00;97191.31;5054884;28;20186;-77
2021/10/03 01:58:45;;;;;;;4.27;3.20;;;;;;;8.47;100.00;97189.88;5055306;28;20636;-77
2021/10/03 02:01:15;;;;;;;4.90;3.20;;;;;;;8.46;100.00;97179.53;5055110;28;20198;-78
2021/10/03 02:03:43;;;;;;;5.77;2.83;;;;;;;8.50;100.00;97187.00;5054936;28;20577;-77
2021/10/03 02:06:10;;;;;;;3.80;3.10;;;;;;;8.55;100.00;97176.97;5054786;28;20201;-77
2021/10/03 02:08:37;;;;;;;3.47;3.17;;;;;;;8.51;100.00;97182.59;5054870;28;20576;-78
2021/10/03 02:11:05;;;;;;;4.00;3.60;;;;;;;8.55;100.00;97179.59;5054270;28;20190;-77
2021/10/03 02:13:34;;;;;;;8.20;3.70;;;;;;;8.67;100.00;97188.28;5054431;28;20268;-78
2021/10/03 02:16:02;;;;;;;7.63;4.00;;;;;;;8.57;100.00;97187.34;5054155;28;20635;-78
2021/10/03 02:18:36;;;;;;;6.67;3.67;;;;;;;8.55;100.00;97197.09;5054305;28;20198;-78
2021/10/03 02:21:05;;;;;;;5.47;3.73;;;;;;;8.40;100.00;97193.09;5054202;28;20190;-78
2021/10/03 02:23:33;;;;;;;4.00;3.17;;;;;;;8.21;100.00;97186.69;5054332;28;20585;-77
2021/10/03 02:26:01;;;;;;;5.60;3.00;;;;;;;8.06;100.00;97190.50;5054343;28;20209;-78
2021/10/03 02:28:28;;;;;;;3.80;3.43;;;;;;;7.77;100.00;97183.13;5054619;28;20190;-78
2021/10/03 02:31:00;;;;;;;3.57;3.17;;;;;;;7.57;100.00;97183.84;5054054;28;20194;-78
2021/10/03 02:33:27;;;;;;;4.33;3.43;;;;;;;7.55;100.00;97183.97;5054252;28;20220;-78
2021/10/03 02:35:55;;;;;;;3.60;3.30;;;;;;;7.43;100.00;97179.66;5053894;28;20662;-78
2021/10/03 02:38:25;;;;;;;4.57;3.50;;;;;;;7.38;100.00;97176.56;5053658;28;20198;-78
2021/10/03 02:40:55;;;;;;;2.90;2.70;;;;;;;7.40;100.00;97169.41;5051108;28;20214;-77
2021/10/03 02:43:22;;;;;;;3.97;3.03;;;;;;;7.47;100.00;97169.78;5053847;28;20247;-77
2021/10/03 02:45:53;;;;;;;3.57;3.27;;;;;;;7.66;100.00;97156.16;5050390;28;20212;-77
2021/10/03 02:48:24;;;;;;;3.27;2.87;;;;;;;7.93;100.00;97161.00;5054002;28;20192;-77
2021/10/03 02:50:53;;;;;;;3.37;3.07;;;;;;;8.07;100.00;97168.59;5053510;28;20240;-77
2021/10/03 02:53:22;;;;;;;7.13;3.27;;;;;;;8.09;100.00;97166.69;5053659;28;20732;-77
2021/10/03 02:55:50;;;;;;;4.07;3.00;;;;;;;8.12;100.00;97169.06;5053773;28;20208;-78
2021/10/03 02:58:17;;;;;;;3.97;3.33;;;;;;;8.12;100.00;97166.47;5053725;28;20667;-78
2021/10/03 03:00:47;;;;;;;3.70;2.77;;;;;;;8.16;100.00;97164.44;5053472;28;20209;-78
2021/10/03 03:03:14;;;;;;;6.90;3.63;;;;;;;8.28;100.00;97177.38;5053295;28;20194;-78
2021/10/03 03:05:43;;;;;;;4.90;2.50;;;;;;;8.22;100.00;97174.41;5053454;28;20205;-78
2021/10/03 03:08:10;;;;;;;3.30;2.93;;;;;;;8.25;100.00;97177.63;5053493;28;20198;-78
2021/10/03 03:10:37;;;;;;;4.50;2.87;;;;;;;8.22;100.00;97185.72;5053396;28;20281;-79
2021/10/03 03:13:04;;;;;;;4.77;2.97;;;;;;;8.18;100.00;97186.94;5053259;28;20317;-78
2021/10/03 03:15:32;;;;;;;6.30;3.30;;;;;;;7.96;100.00;97192.16;5053065;28;20225;-78
2021/10/03 03:17:59;;;;;;;2.93;2.73;;;;;;;7.47;100.00;97191.53;5053370;28;20202;-78
2021/10/03 03:20:26;;;;;;;3.40;3.03;;;;;;;7.60;100.00;97180.97;5053411;28;20220;-77
2021/10/03 03:22:55;;;;;;;3.13;2.83;;;;;;;7.96;100.00;97177.28;5052901;28;20248;-77
2021/10/03 03:25:22;;;;;;;6.40;2.70;;;;;;;8.01;100.00;97176.94;5053278;28;20204;-77
2021/10/03 03:27:49;;;;;;;3.00;2.80;;;;;;;8.17;100.00;97180.00;5053399;28;20204;-78
2021/10/03 03:30:17;;;;;;;6.60;2.83;;;;;;;8.09;100.00;97183.22;5052710;28;20201;-77
2021/10/03 03:32:44;;;;;;;6.13;3.07;;;;;;;8.10;100.00;97181.44;5052930;28;20198;-77
2021/10/03 03:35:12;;;;;;;7.40;3.77;;;;;;;8.13;100.00;97183.81;5053128;28;20226;-77
2021/10/03 03:37:40;;;;;;;3.47;3.07;;;;;;;8.17;100.00;97187.03;5052979;28;20204;-76
2021/10/03 03:40:11;;;;;;;3.13;2.87;;;;;;;8.08;100.00;97188.59;5052832;28;20208;-77
2021/10/03 03:42:38;;;;;;;3.70;3.03;;;;;;;8.17;100.00;97184.41;5052769;28;20277;-77
2021/10/03 03:45:07;;;;;;;4.83;3.17;;;;;;;8.18;100.00;97186.09;5052623;28;20286;-77
2021/10/03 03:47:34;;;;;;;5.73;3.07;;;;;;;8.08;100.00;97181.56;5052695;28;20290;-78
2021/10/03 03:50:01;;;;;;;4.87;3.00;;;;;;;8.01;100.00;97175.16;5052110;28;20202;-77
2021/10/03 03:52:28;;;;;;;4.20;2.93;;;;;;;7.92;100.00;97180.28;5052599;28;20251;-78
2021/10/03 03:54:56;;;;;;;2.50;2.30;;;;;;;7.96;100.00;97184.31;5052386;28;20221;-77
2021/10/03 03:57:25;;;;;;;6.57;2.87;;;;;;;7.90;100.00;97176.94;5052793;28;20229;-77
2021/10/03 03:59:52;;;;;;;5.13;3.20;;;;;;;7.86;100.00;97181.56;5052205;28;20296;-77
2021/10/03 04:02:20;;;;;;;4.83;3.50;;;;;;;7.60;100.00;97184.44;5049421;28;20653;-76
2021/10/03 04:04:47;;;;;;;6.73;3.33;;;;;;;7.73;100.00;97178.28;5052313;28;20233;-77
2021/10/03 04:07:14;;;;;;;4.20;3.33;;;;;;;7.81;100.00;97188.97;5052318;28;20230;-78
2021/10/03 04:09:42;;;;;;;6.07;3.50;;;;;;;7.75;100.00;97181.59;5052187;28;20190;-77
2021/10/03 04:12:09;;;;;;;3.77;3.43;;;;;;;7.88;100.00;97178.84;5051806;28;20677;-78
2021/10/03 04:14:39;;;;;;;4.20;3.90;;;;;;;7.72;100.00;97193.09;5051876;28;20741;-78
2021/10/03 04:17:07;;;;;;;6.63;4.80;;;;;;;7.59;100.00;97185.38;5052265;28;20202;-78
2021/10/03 04:19:34;;;;;;;6.63;4.50;;;;;;;7.74;100.00;97178.13;5051753;28;20214;-78
2021/10/03 04:22:01;;;;;;;8.73;4.87;;;;;;;7.53;100.00;97185.03;5052450;28;20204;-78
2021/10/03 04:24:28;;;;;;;6.03;5.43;;;;;;;7.57;100.00;97182.03;5052210;28;20198;-78
2021/10/03 04:26:56;;;;;;;6.53;5.83;;;;;;;7.54;100.00;97187.50;5052118;28;20670;-78
2021/10/03 04:29:23;;;;;;;10.97;6.80;;;;;;;7.44;100.00;97186.53;5052124;28;20233;-78
2021/10/03 04:31:52;;;;;;;23.70;11.80;;;;;;;7.48;100.00;97189.75;5051670;28;20285;-78
2021/10/03 04:34:19;;;;;;;37.90;16.00;;;;;;;7.49;100.00;97196.69;5051622;28;20236;-78
2021/10/03 04:36:46;;;;;;;26.50;14.93;;;;;;;7.36;100.00;97202.81;5052036;28;20198;-78
2021/10/03 04:39:14;;;;;;;26.43;14.77;;;;;;;7.29;100.00;97198.19;5051681;28;20299;-78
2021/10/03 04:41:41;;;;;;;11.47;6.83;;;;;;;7.33;100.00;97195.19;5051715;28;20276;-78
2021/10/03 04:44:08;;;;;;;9.10;4.90;;;;;;;6.82;100.00;97203.38;5051654;28;20697;-78
2021/10/03 04:46:35;;;;;;;7.43;5.57;;;;;;;6.89;100.00;97196.75;5051920;28;20666;-78
2021/10/03 04:49:04;;;;;;;9.57;6.00;;;;;;;6.96;100.00;97194.50;5051478;28;20670;-78
2021/10/03 04:51:31;;;;;;;10.10;6.40;;;;;;;7.15;100.00;97196.59;5041499;28;20204;-78
2021/10/03 04:53:59;;;;;;;9.80;5.90;;;;;;;7.02;100.00;97208.91;5031930;28;20602;-77
2021/10/03 04:56:28;;;;;;;7.20;4.77;;;;;;;7.06;100.00;97205.09;5034036;28;20714;-78
2021/10/03 04:58:55;;;;;;;5.37;4.80;;;;;;;7.00;100.00;97197.75;5051864;28;20197;-78
2021/10/03 05:01:22;;;;;;;6.73;5.57;;;;;;;6.91;100.00;97205.31;5051964;28;20197;-78
2021/10/03 05:03:50;;;;;;;9.77;5.93;;;;;;;6.94;100.00;97211.25;5055409;28;20285;-77
2021/10/03 05:06:19;;;;;;;6.57;5.83;;;;;;;6.99;100.00;97207.34;5055910;28;20201;-78
2021/10/03 05:08:46;;;;;;;7.43;5.17;;;;;;;6.90;100.00;97215.88;5055806;28;20198;-78
2021/10/03 05:11:13;;;;;;;11.37;5.60;;;;;;;6.79;100.00;97221.03;5055606;28;20591;-78
2021/10/03 05:13:40;;;;;;;8.20;4.43;;;;;;;7.10;100.00;97217.00;5055392;28;20225;-77
2021/10/03 05:16:07;;;;;;;6.47;5.40;;;;;;;7.03;100.00;97223.63;5055712;28;20186;-78
2021/10/03 05:18:37;;;;;;;7.93;4.60;;;;;;;7.04;100.00;97220.09;5055816;28;20224;-78
2021/10/03 05:21:05;;;;;;;6.37;4.07;;;;;;;7.22;100.00;97207.44;5055542;28;20232;-78
2021/10/03 05:23:34;;;;;;;3.90;3.50;;;;;;;7.47;100.00;97204.63;5055408;28;20237;-77
2021/10/03 05:26:01;;;;;;;4.23;3.83;;;;;;;7.58;100.00;97209.03;5055464;28;20201;-78
2021/10/03 05:28:28;;;;;;;3.70;3.40;;;;;;;7.72;100.00;97216.66;5055527;28;20225;-77
2021/10/03 05:30:55;;;;;;;4.40;4.10;;;;;;;7.84;100.00;97218.34;5058429;28;20194;-78
2021/10/03 05:33:23;;;;;;;5.43;3.37;;;;;;;7.95;100.00;97219.31;5054693;28;20280;-78
2021/10/03 05:35:51;;;;;;;6.03;3.90;;;;;;;7.97;100.00;97218.25;5055278;28;20232;-78
2021/10/03 05:38:18;;;;;;;5.63;3.37;;;;;;;8.11;100.00;97225.03;5053197;28;20287;-77
2021/10/03 05:40:46;;;;;;;7.17;3.87;;;;;;;8.19;100.00;97225.25;5049112;28;20202;-78
2021/10/03 05:43:14;;;;;;;4.10;3.70;;;;;;;8.29;100.00;97226.19;5035124;28;20746;-78
2021/10/03 05:45:41;;;;;;;5.33;3.70;;;;;;;8.33;100.00;97224.16;5035040;28;20260;-78
2021/10/03 05:48:08;;;;;;;9.77;4.27;;;;;;;8.54;100.00;97226.91;5044934;28;20228;-78
2021/10/03 05:50:35;;;;;;;6.63;4.33;;;;;;;8.54;100.00;97226.91;5045155;28;20196;-77
2021/10/03 05:53:03;;;;;;;7.50;4.03;;;;;;;8.72;100.00;97229.81;5043007;28;20663;-77
2021/10/03 05:55:30;;;;;;;4.20;3.63;;;;;;;8.84;100.00;97223.59;5043479;28;20214;-77
2021/10/03 05:57:59;;;;;;;4.63;3.93;;;;;;;8.85;100.00;97225.25;5045759;28;20725;-77
2021/10/03 06:00:27;;;;;;;16.13;11.03;;;;;;;8.99;100.00;97226.75;5054594;28;20200;-78
2021/10/03 06:02:55;;;;;;;5.57;5.07;;;;;;;9.12;100.00;97232.66;5055027;28;20198;-78
2021/10/03 06:05:22;;;;;;;4.33;3.77;;;;;;;9.31;100.00;97233.78;5054416;28;20658;-78
2021/10/03 06:07:49;;;;;;;3.80;2.50;;;;;;;9.44;100.00;97244.91;5055112;28;20281;-79
2021/10/03 06:10:16;;;;;;;3.73;3.43;;;;;;;9.65;100.00;97240.50;5054561;28;20208;-78
2021/10/03 06:12:44;;;;;;;5.90;4.27;;;;;;;9.85;100.00;97251.13;5054942;28;20198;-79
2021/10/03 06:15:12;;;;;;;5.67;4.67;;;;;;;9.94;100.00;97245.06;5054095;28;20229;-78
2021/10/03 06:17:39;;;;;;;8.00;3.67;;;;;;;10.03;100.00;97252.16;5054380;28;20198;-77
2021/10/03 06:20:08;;;;;;;6.17;3.50;;;;;;;10.13;100.00;97258.31;5054579;28;20198;-78
2021/10/03 06:22:35;;;;;;;7.63;3.37;;;;;;;10.13;100.00;97273.25;5054379;28;20205;-78
2021/10/03 06:25:02;;;;;;;3.87;2.60;;;;;;;10.12;100.00;97277.66;5052324;28;20578;-78
2021/10/03 06:27:31;;;;;;;4.70;3.27;;;;;;;10.19;100.00;97273.53;5045333;28;20204;-78
2021/10/03 06:29:58;;;;;;;3.20;2.93;;;;;;;10.28;100.00;97277.19;5042905;28;20210;-78
2021/10/03 06:32:27;;;;;;;3.20;2.80;;;;;;;10.37;100.00;97286.94;5034599;28;20285;-78
2021/10/03 06:34:54;;;;;;;3.57;2.80;;;;;;;10.47;100.00;97273.81;5033859;28;20233;-78
2021/10/03 06:37:22;;;;;;;2.77;2.57;;;;;;;10.61;100.00;97273.44;5034623;28;20282;-78
2021/10/03 06:39:49;;;;;;;4.30;3.20;;;;;;;10.68;100.00;97271.94;5033933;28;20198;-78
2021/10/03 06:42:16;;;;;;;3.17;2.87;;;;;;;10.83;100.00;97276.81;5034382;28;20663;-78
2021/10/03 06:44:44;;;;;;;3.50;3.20;;;;;;;11.04;100.00;97285.44;5033937;28;20230;-78
2021/10/03 06:47:12;;;;;;;7.93;4.33;;;;;;;11.22;100.00;97279.50;5051501;28;20237;-78
2021/10/03 06:49:41;;;;;;;3.07;2.77;;;;;;;11.42;100.00;97286.44;5054023;28;20190;-78
2021/10/03 06:52:09;;;;;;;3.43;2.30;;;;;;;11.49;100.00;97287.53;5053864;28;20737;-78
2021/10/03 06:54:37;;;;;;;4.97;2.80;;;;;;;11.56;100.00;97293.91;5053489;28;20222;-78
2021/10/03 06:57:04;;;;;;;4.30;2.93;;;;;;;11.65;100.00;97295.72;5047106;28;20662;-78
2021/10/03 06:59:33;;;;;;;5.50;3.00;;;;;;;11.87;100.00;97299.84;5033410;28;20203;-78
2021/10/03 07:02:01;;;;;;;3.93;2.73;;;;;;;12.06;100.00;97304.28;5033762;28;20202;-79
2021/10/03 07:04:30;;;;;;;5.87;2.90;;;;;;;12.17;100.00;97299.81;5032736;28;20667;-78
2021/10/03 07:06:59;;;;;;;4.57;2.83;;;;;;;12.42;100.00;97309.69;5033762;28;20288;-78
2021/10/03 07:09:26;;;;;;;4.73;2.57;;;;;;;12.40;100.00;97305.53;5033350;28;20198;-78
2021/10/03 07:11:54;;;;;;;3.40;2.53;;;;;;;12.70;100.00;97307.91;5033350;28;20199;-78
2021/10/03 07:14:22;;;;;;;7.07;2.80;;;;;;;12.83;100.00;97307.56;5032549;28;20312;-78
2021/10/03 07:16:49;;;;;;;2.40;2.20;;;;;;;12.87;100.00;97313.38;5032470;28;20198;-79
2021/10/03 07:19:16;;;;;;;2.53;2.30;;;;;;;13.06;100.00;97306.19;5033745;28;20203;-78
2021/10/03 07:21:44;;;;;;;6.53;3.20;;;;;;;13.23;100.00;97314.25;5044091;28;20214;-78
2021/10/03 07:24:13;;;;;;;2.73;2.53;;;;;;;13.53;100.00;97318.38;5032354;28;20218;-78
2021/10/03 07:26:40;;;;;;;3.27;3.00;;;;;;;13.96;100.00;97314.13;5032539;28;20671;-79
2021/10/03 07:29:07;;;;;;;5.30;2.80;;;;;;;14.12;100.00;97326.63;5032818;28;20292;-79
2021/10/03 07:31:35;;;;;;;2.80;2.60;;;;;;;14.19;100.00;97317.91;5049146;28;20721;-79
2021/10/03 07:34:06;;;;;;;3.33;3.03;;;;;;;14.42;100.00;97323.50;5052548;28;20652;-78
2021/10/03 07:36:33;;;;;;;3.10;2.90;;;;;;;14.63;100.00;97331.09;5052751;28;20220;-78
2021/10/03 07:39:00;;;;;;;4.33;2.80;;;;;;;14.74;100.00;97324.69;5052452;28;20670;-79
2021/10/03 07:41:29;;;;;;;8.23;6.40;;;;;;;14.86;100.00;97334.03;5052773;28;20202;-78
2021/10/03 07:43:57;;;;;;;4.73;3.60;;;;;;;15.17;100.00;97339.59;5052318;28;20667;-79
2021/10/03 07:46:24;;;;;;;12.93;9.00;;;;;;;15.43;100.00;97330.69;5052701;28;20587;-79
2021/10/03 07:48:52;;;;;;;5.80;4.30;;;;;;;15.59;100.00;97338.69;5052696;28;20205;-79
2021/10/03 07:51:19;;;;;;;6.50;4.37;;;;;;;15.65;100.00;97339.81;5052196;28;20198;-78
2021/10/03 07:53:46;;;;;;;42.43;32.17;;;;;;;15.88;100.00;97340.88;5052391;28;20197;-78
2021/10/03 07:56:14;;;;;;;15.80;12.83;;;;;;;16.22;100.00;97345.16;5052307;28;20574;-79
2021/10/03 07:58:42;;;;;;;6.67;4.47;;;;;;;16.53;100.00;97341.81;5052547;28;20277;-82
2021/10/03 08:01:10;;;;;;;4.03;3.57;;;;;;;16.36;100.00;97336.53;5048204;28;20202;-81
2021/10/03 08:03:39;;;;;;;4.83;3.63;;;;;;;16.70;100.00;97334.63;5041089;28;20206;-81
2021/10/03 08:06:07;;;;;;;3.77;3.37;;;;;;;16.84;100.00;97342.72;5032005;28;20672;-81
2021/10/03 08:08:34;;;;;;;2.70;2.50;;;;;;;16.87;100.00;97333.59;5032188;28;20202;-80
2021/10/03 08:11:01;;;;;;;7.43;3.03;;;;;;;17.28;100.00;97349.31;5031718;28;20211;-81
2021/10/03 08:13:28;;;;;;;8.20;4.03;;;;;;;17.67;100.00;97346.63;5038632;28;20248;-81
2021/10/03 08:15:57;;;;;;;4.07;2.63;;;;;;;16.92;100.00;97351.66;5046136;28;20235;-80
2021/10/03 08:18:24;;;;;;;4.47;2.27;;;;;;;16.91;100.00;97350.03;5051883;28;21010;-80
2021/10/03 08:20:52;;;;;;;2.47;2.27;;;;;;;17.13;100.00;97354.56;5049624;28;20245;-81
2021/10/03 08:23:20;;;;;;;6.40;2.87;;;;;;;17.65;100.00;97356.59;5043776;28;20255;-81
2021/10/03 08:25:49;;;;;;;2.93;2.63;;;;;;;17.83;100.00;97351.81;5031578;28;20205;-80
2021/10/03 08:28:16;;;;;;;3.13;2.83;;;;;;;18.14;100.00;97352.75;5031340;28;20313;-80
2021/10/03 08:30:44;;;;;;;4.23;3.37;;;;;;;18.28;100.00;97343.97;5031619;28;20201;-81
2021/10/03 08:33:12;;;;;;;3.53;2.67;;;;;;;18.23;100.00;97360.50;5041864;28;20593;-80
2021/10/03 08:35:40;;;;;;;4.03;2.67;;;;;;;18.50;100.00;97348.44;5051577;28;20774;-80
2021/10/03 08:44:31;;;;;;;5.70;3.40;;;;;;;;;;5109263;27;20553;-80
2021/10/03 08:46:59;;;;;;;3.80;2.97;;;;;;;;;;5109721;28;20264;-81
2021/10/03 08:49:26;;;;;;;4.63;3.60;;;;;;;;;;5109090;28;20199;-79
2021/10/03 08:51:53;;;;;;;7.00;4.00;;;;;;;;;;5109556;28;20286;-80
2021/10/03 08:54:20;;;;;;;5.47;3.20;;;;;;;;;;5109097;28;20231;-80
2021/10/03 08:56:48;;;;;;;3.37;2.60;;;;;;;;;;5109226;28;20202;-80
2021/10/03 08:59:15;;;;;;;3.70;3.30;;;;;;;;;;5109157;28;20256;-81
2021/10/03 09:01:51;;;;;;;16.40;6.07;;;;;;;;;;5109340;28;20196;-81
2021/10/03 09:04:26;;;;;;;4.53;3.17;;;;;;;;;;5108675;28;20751;-81
2021/10/03 09:07:05;;;;;;;4.10;3.40;;;;;;;;;;5109233;28;20226;-81
2021/10/03 09:09:52;;;;;;;4.77;3.50;;;;;;;;;;5109072;28;20245;-81
2021/10/03 09:12:24;;;;;;;4.13;3.37;;;;;;;;;;5109164;28;20554;-81
2021/10/03 09:14:51;;;;;;;14.03;4.00;;;;;;;;;;5109157;28;20628;-81
2021/10/03 09:17:20;;;;;;;7.70;3.77;;;;;;;;;;5108718;28;20206;-81
2021/10/03 09:20:10;;;;;;;7.83;3.30;;;;;;;;;;5108946;28;20200;-81
2021/10/03 09:23:05;;;;;;;3.13;2.83;;;;;;;;;;5109005;28;20226;-82
2021/10/03 09:25:40;;;;;;;6.73;3.50;;;;;;;;;;5108868;28;20295;-82
2021/10/03 09:28:09;;;;;;;5.23;3.83;;;;;;;;;;5108716;28;20662;-81
2021/10/03 09:30:37;;;;;;;5.23;2.67;;;;;;;;;;5108731;28;20620;-82
2021/10/03 09:33:05;;;;;;;134.83;24.70;;;;;;;;;;5109205;28;20282;-82
2021/10/03 09:35:34;;;;;;;9.13;3.70;;;;;;;;;;5108447;28;20192;-82
2021/10/03 09:38:10;;;;;;;267.33;41.10;;;;;;;;;;5108667;28;20196;-82
2021/10/03 09:40:37;;;;;;;7.83;3.13;;;;;;;;;;5108608;28;20184;-82
2021/10/03 09:43:04;;;;;;;4.37;3.20;;;;;;;;;;5108300;28;20234;-81
2021/10/03 09:45:32;;;;;;;5.10;3.23;;;;;;;;;;5108586;28;20219;-82
2021/10/03 09:48:02;;;;;;;3.77;2.70;;;;;;;;;;5108833;28;20196;-81
2021/10/03 09:50:31;;;;;;;3.47;2.47;;;;;;;;;;5108414;28;20206;-82
2021/10/03 09:52:59;;;;;;;3.43;2.83;;;;;;;;;;5108806;28;20200;-82
2021/10/03 09:55:26;;;;;;;3.03;2.83;;;;;;;;;;5096832;28;20563;-82
2021/10/03 09:57:55;;;;;;;4.07;3.10;;;;;;;;;;5094621;28;20197;-81
2021/10/03 10:00:24;;;;;;;4.77;2.40;;;;;;;;;;5094657;28;20192;-82
2021/10/03 10:02:52;;;;;;;3.30;2.97;;;;;;;;;;5094930;28;20224;-82
2021/10/03 10:05:23;;;;;;;5.40;3.27;;;;;;;;;;5094437;28;20215;-82
2021/10/03 10:07:52;;;;;;;5.40;2.50;;;;;;;;;;5094665;28;20664;-82
2021/10/03 10:10:20;;;;;;;4.83;2.33;;;;;;;;;;5094543;28;20200;-83
2021/10/03 10:12:52;;;;;;;3.50;2.87;;;;;;;;;;5094550;28;20196;-83
2021/10/03 10:15:22;;;;;;;2.67;2.40;;;;;;;;;;5094335;28;20192;-81
2021/10/03 10:17:50;;;;;;;3.90;3.00;;;;;;;;;;5094475;28;20191;-82
2021/10/03 10:20:36;;;;;;;4.40;3.17;;;;;;;;;;5094263;28;20203;-83
2021/10/03 10:23:07;;;;;;;4.50;2.63;;;;;;;;;;5094582;28;20211;-83
2021/10/03 10:25:46;;;;;;;2.50;2.30;;;;;;;;;;5093850;28;20286;-83
2021/10/03 10:28:23;;;;;;;2.20;2.07;;;;;;;;;;5094239;28;20184;-83
2021/10/03 10:31:11;;;;;;;3.03;2.20;;;;;;;;;;5094048;28;20749;-83
2021/10/03 10:34:06;;;;;;;4.77;2.73;;;;;;;;;;5094155;28;20176;-83
2021/10/03 10:36:36;;;;;;;3.03;2.83;;;;;;;;;;5081026;28;20212;-83
2021/10/03 10:39:27;;;;;;;3.23;2.27;;;;;;;;;;5093692;28;20649;-83
2021/10/03 10:41:58;;;;;;;3.07;2.80;;;;;;;;;;5093993;28;20188;-83
2021/10/03 10:44:34;;;;;;;3.43;2.10;;;;;;;;;;5094038;28;20236;-83
2021/10/03 10:47:01;;;;;;;52.77;8.73;;;;;;;;;;5093721;28;20664;-83
2021/10/03 10:49:40;;;;;;;4.87;2.90;;;;;;;;;;5094054;28;20274;-83
2021/10/03 10:52:26;;;;;;;4.67;2.27;;;;;;;;;;5094123;28;20629;-83
2021/10/03 10:55:26;;;;;;;3.13;1.93;;;;;;;;;;5093972;28;20576;-83
2021/10/03 10:58:19;;;;;;;4.00;2.70;;;;;;;;;;5093523;28;20196;-82
2021/10/03 11:01:11;;;;;;;2.40;1.97;;;;;;;;;;5093905;28;20188;-81
2021/10/03 11:03:56;;;;;;;2.73;2.37;;;;;;;;;;5093448;28;20200;-82
2021/10/03 11:07:02;;;;;;;4.17;2.27;;;;;;;;;;5092572;28;20214;-82
2021/10/03 11:09:53;;;;;;;3.20;2.10;;;;;;;;;;5092169;28;20192;-81
2021/10/03 11:12:32;;;;;;;2.80;2.33;;;;;;;;;;5094124;28;20743;-81
2021/10/03 11:15:22;;;;;;;2.73;2.37;;;;;;;;;;5093162;28;20185;-81
2021/10/03 11:17:50;;;;;;;4.67;2.63;;;;;;;;;;5093367;28;20624;-80
2021/10/03 11:20:17;;;;;;;2.83;2.63;;;;;;;;;;5093061;28;20287;-80
2021/10/03 11:22:45;;;;;;;5.03;2.77;;;;;;;;;;5093279;28;20687;-81
2021/10/03 11:25:17;;;;;;;3.83;3.40;;;;;;;;;;5092755;28;20665;-81
2021/10/03 11:27:54;;;;;;;3.97;3.03;;;;;;;;;;5093491;28;20234;-81
2021/10/03 11:30:21;;;;;;;8.30;3.33;;;;;;;;;;5093211;28;20567;-81
2021/10/03 11:32:49;;;;;;;5.87;2.90;;;;;;;;;;5090992;28;20714;-81
2021/10/03 11:35:17;;;;;;;3.13;2.83;;;;;;;;;;5089220;28;20240;-81
2021/10/03 11:37:48;;;;;;;9.43;2.97;;;;;;;;;;5090820;28;20207;-81
2021/10/03 11:40:18;;;;;;;3.23;2.67;;;;;;;;;;5092838;28;20195;-81
2021/10/03 11:42:48;;;;;;;4.47;2.93;;;;;;;;;;5093040;28;20297;-82
2021/10/03 11:45:17;;;;;;;5.97;3.10;;;;;;;;;;5092940;28;20395;-81
2021/10/03 11:47:47;;;;;;;3.37;3.07;;;;;;;;;;5092554;28;20250;-81
2021/10/03 11:50:17;;;;;;;6.50;4.00;;;;;;;;;;5092617;28;20211;-81
2021/10/03 11:52:45;;;;;;;4.40;3.27;;;;;;;;;;5092649;28;20264;-82
2021/10/03 11:55:15;;;;;;;3.57;2.50;;;;;;;;;;5092828;28;20262;-81
2021/10/03 11:57:44;;;;;;;6.60;2.90;;;;;;;;;;5092310;28;20268;-81
2021/10/03 12:00:19;;;;;;;3.73;2.87;;;;;;;;;;5092734;28;20283;-82
2021/10/03 12:02:47;;;;;;;4.60;3.10;;;;;;;;;;5092543;28;20188;-81
2021/10/03 12:05:20;;;;;;;3.30;2.77;;;;;;;;;;5092269;28;20220;-81
2021/10/03 12:07:47;;;;;;;2.70;2.50;;;;;;;;;;5092188;28;20681;-81
2021/10/03 12:10:17;;;;;;;3.33;3.03;;;;;;;;;;5092240;28;20287;-81
2021/10/03 12:12:55;;;;;;;3.27;2.50;;;;;;;;;;5092679;28;20192;-82
2021/10/03 12:15:42;;;;;;;5.53;2.77;;;;;;;;;;5084903;28;20208;-82
2021/10/03 12:18:11;;;;;;;4.00;2.90;;;;;;;;;;5089155;28;20192;-82
2021/10/03 12:20:52;;;;;;;3.10;2.53;;;;;;;;;;5091114;28;20200;-82
2021/10/03 12:23:20;;;;;;;4.97;2.70;;;;;;;;;;5078405;28;20647;-82
2021/10/03 12:25:50;;;;;;;7.73;3.30;;;;;;;;;;5070682;28;20259;-82
2021/10/03 12:28:19;;;;;;;4.73;3.20;;;;;;;;;;5070611;28;20288;-82
2021/10/03 12:30:49;;;;;;;7.50;2.77;;;;;;;;;;5070511;28;20621;-82
2021/10/03 12:33:16;;;;;;;10.70;4.07;;;;;;;;;;5073066;28;20283;-82
2021/10/03 12:36:00;;;;;;;6.90;5.10;;;;;;;;;;5070582;28;20287;-83